Time;durP1;ratioP1;P1;durP2;ratioP2;P2;SDS_P1;SDS_P2;PMS_P1;PMS_P2;Temp;Humidity;BMP_temperature;BMP_pressure;BME280_temperature;BME280_humidity;BME280_pressure;Samples;Min_cycle;Max_cycle;Signal;HPM_P1;HPM_P2
2022/02/01 00:03:15;;;;;;;145.50;58.78;;;;;;;;;;6201120;23;20088;-75
2022/02/01 00:05:53;;;;;;;164.32;60.97;;;;;;;;;;6220227;23;20000;-74
2022/02/01 00:11:06;;;;;;;159.82;66.50;;;;;;;;;;6225082;23;20003;-74
2022/02/01 00:18:44;;;;;;;176.55;66.85;;;;;;;;;;6242402;22;20034;-75
2022/02/01 00:37:49;;;;;;;162.85;60.92;;;;;;;;;;6250022;23;19996;-79
2022/02/01 00:40:16;;;;;;;174.05;65.35;;;;;;;;;;6223474;23;19998;-79
2022/02/01 00:42:42;;;;;;;165.93;61.17;;;;;;;;;;6249908;23;20004;-79
2022/02/01 00:45:08;;;;;;;195.60;64.93;;;;;;;;;;6247914;23;19984;-79
2022/02/01 00:47:34;;;;;;;175.80;66.05;;;;;;;;;;6248899;23;20063;-79
2022/02/01 00:50:00;;;;;;;168.32;63.83;;;;;;;;;;6249461;23;19988;-78
2022/02/01 00:52:28;;;;;;;164.20;61.78;;;;;;;;;;6197178;23;20004;-79
2022/02/01 00:54:54;;;;;;;161.75;61.10;;;;;;;;;;6218688;23;20411;-75
2022/02/01 00:57:24;;;;;;;156.43;62.17;;;;;;;;;;6195555;23;20067;-75
2022/02/01 00:59:55;;;;;;;158.73;62.67;;;;;;;;;;6194098;23;20007;-74
2022/02/01 01:02:28;;;;;;;149.43;61.17;;;;;;;;;;6194135;23;20012;-75
2022/02/01 01:05:00;;;;;;;168.38;63.58;;;;;;;;;;6187736;23;19992;-75
2022/02/01 01:07:53;;;;;;;161.38;62.30;;;;;;;;;;6188465;23;20291;-75
2022/02/01 01:10:20;;;;;;;184.10;68.25;;;;;;;;;;6193848;23;20036;-79
2022/02/01 01:13:20;;;;;;;160.85;63.65;;;;;;;;;;6243718;23;20074;-75
2022/02/01 01:15:39;;;;;;;155.10;59.47;;;;;;;;;;6210576;23;20183;-75
2022/02/01 01:53:45;;;;;;;159.43;65.43;;;;;;;;;;6221338;23;20000;-75
2022/02/01 01:56:15;;;;;;;153.88;60.28;;;;;;;;;;6195037;23;19992;-75
2022/02/01 01:58:42;;;;;;;183.35;66.93;;;;;;;;;;6192518;23;20000;-75
2022/02/01 02:01:11;;;;;;;159.38;70.22;;;;;;;;;;6194506;23;19996;-76
2022/02/01 02:03:40;;;;;;;159.52;62.78;;;;;;;;;;6193122;23;20004;-75
2022/02/01 02:06:09;;;;;;;154.60;61.88;;;;;;;;;;6195609;23;20003;-75
2022/02/01 02:08:44;;;;;;;148.52;58.38;;;;;;;;;;6195920;23;20003;-74
2022/02/01 02:11:16;;;;;;;139.35;58.47;;;;;;;;;;6195190;23;20004;-74
2022/02/01 02:16:40;;;;;;;142.00;56.42;;;;;;;;;;6219095;23;19996;-75
2022/02/01 02:19:09;;;;;;;159.10;60.67;;;;;;;;;;6194572;23;20007;-75
2022/02/01 02:21:40;;;;;;;158.82;60.53;;;;;;;;;;6191528;23;20167;-75
2022/02/01 02:24:10;;;;;;;166.00;62.15;;;;;;;;;;6195038;23;20527;-74
2022/02/01 02:26:43;;;;;;;166.45;60.65;;;;;;;;;;6196196;23;19996;-75
2022/02/01 02:29:19;;;;;;;161.13;59.22;;;;;;;;;;6195866;23;20078;-74
2022/02/01 02:31:47;;;;;;;146.18;60.40;;;;;;;;;;6196308;23;20000;-76
2022/02/01 02:34:15;;;;;;;150.93;59.67;;;;;;;;;;6194656;23;20000;-75
2022/02/01 02:36:51;;;;;;;156.18;64.57;;;;;;;;;;6194677;23;20023;-75
2022/02/01 02:47:22;;;;;;;149.18;60.85;;;;;;;;;;6218733;23;20018;-75
2022/02/01 02:49:54;;;;;;;159.02;62.78;;;;;;;;;;6214415;23;20001;-75
2022/02/01 02:52:25;;;;;;;134.35;53.45;;;;;;;;;;6193651;23;20001;-76
2022/02/01 02:54:56;;;;;;;117.03;43.58;;;;;;;;;;6199207;23;20008;-75
2022/02/01 02:57:29;;;;;;;153.60;53.55;;;;;;;;;;6196129;23;20122;-76
2022/02/01 03:00:02;;;;;;;163.80;59.80;;;;;;;;;;6193942;23;19996;-76
2022/02/01 03:05:18;;;;;;;174.38;67.18;;;;;;;;;;6182196;22;20016;-76
2022/02/01 03:07:45;;;;;;;164.88;65.15;;;;;;;;;;6219335;23;19999;-75
2022/02/01 03:10:20;;;;;;;168.40;65.00;;;;;;;;;;6219474;23;20407;-75
2022/02/01 03:13:10;;;;;;;158.20;64.30;;;;;;;;;;6194726;23;20027;-75
2022/02/01 03:21:15;;;;;;;177.48;70.15;;;;;;;;;;6220579;23;20047;-76
2022/02/01 03:23:43;;;;;;;163.18;65.60;;;;;;;;;;6194725;23;20035;-76
2022/02/01 03:26:12;;;;;;;175.80;63.90;;;;;;;;;;6171235;23;20003;-76
2022/02/01 03:28:45;;;;;;;168.35;67.80;;;;;;;;;;6219729;23;20083;-76
2022/02/01 03:31:16;;;;;;;184.63;72.32;;;;;;;;;;6194756;23;20003;-76
2022/02/01 03:33:54;;;;;;;147.95;62.33;;;;;;;;;;6194477;23;20002;-76
2022/02/01 03:36:23;;;;;;;159.93;60.72;;;;;;;;;;6240493;23;20439;-76
2022/02/01 03:38:58;;;;;;;157.88;60.53;;;;;;;;;;6219705;23;20307;-76
2022/02/01 03:41:24;;;;;;;178.20;69.82;;;;;;;;;;6194341;23;20311;-76
2022/02/01 03:44:00;;;;;;;173.30;68.70;;;;;;;;;;6221261;23;20299;-76
2022/02/01 03:46:35;;;;;;;161.32;66.30;;;;;;;;;;6190177;23;19996;-74
2022/02/01 03:49:04;;;;;;;164.77;64.07;;;;;;;;;;6194061;23;19997;-75
2022/02/01 03:51:42;;;;;;;169.32;67.00;;;;;;;;;;6183312;23;20390;-75
2022/02/01 03:54:49;;;;;;;167.82;68.55;;;;;;;;;;6201879;23;20279;-76
2022/02/01 04:00:21;;;;;;;172.32;71.05;;;;;;;;;;6207448;23;19916;-75
2022/02/01 04:05:53;;;;;;;156.75;67.07;;;;;;;;;;6236985;23;20035;-79
2022/02/01 04:08:20;;;;;;;168.40;67.68;;;;;;;;;;6227516;23;20044;-79
2022/02/01 04:10:49;;;;;;;169.80;65.35;;;;;;;;;;6254796;23;20015;-80
2022/02/01 04:13:15;;;;;;;167.65;64.93;;;;;;;;;;6228239;23;20022;-80
2022/02/01 04:15:42;;;;;;;173.55;66.32;;;;;;;;;;6258891;23;19996;-80
2022/02/01 04:18:09;;;;;;;170.80;64.03;;;;;;;;;;6205154;23;19996;-79
2022/02/01 04:20:36;;;;;;;173.50;69.97;;;;;;;;;;6229924;23;19992;-79
2022/02/01 04:23:02;;;;;;;162.18;64.85;;;;;;;;;;6230516;23;20027;-79
2022/02/01 04:25:29;;;;;;;196.55;78.32;;;;;;;;;;6235410;23;19996;-80
2022/02/01 04:27:55;;;;;;;182.27;75.28;;;;;;;;;;6260760;23;20003;-81
2022/02/01 04:30:22;;;;;;;195.88;93.78;;;;;;;;;;6231890;23;20003;-79
2022/02/01 04:33:07;;;;;;;160.05;74.00;;;;;;;;;;6164373;23;20008;-76
2022/02/01 04:35:40;;;;;;;174.00;69.45;;;;;;;;;;6197190;23;20050;-75
2022/02/01 04:38:07;;;;;;;178.13;83.82;;;;;;;;;;6196662;23;19996;-76
2022/02/01 04:40:53;;;;;;;168.20;75.43;;;;;;;;;;6205674;23;20283;-76
2022/02/01 04:43:21;;;;;;;179.55;72.95;;;;;;;;;;6178072;23;20015;-75
2022/02/01 04:45:48;;;;;;;186.10;82.00;;;;;;;;;;6248543;23;20003;-75
2022/02/01 04:48:16;;;;;;;199.05;77.55;;;;;;;;;;6219092;23;20000;-75
2022/02/01 04:50:52;;;;;;;189.55;75.97;;;;;;;;;;6189365;23;20003;-76
2022/02/01 04:53:21;;;;;;;194.57;80.22;;;;;;;;;;6196466;23;19996;-75
2022/02/01 04:55:57;;;;;;;208.70;81.75;;;;;;;;;;6198573;23;20004;-75
2022/02/01 04:58:24;;;;;;;200.27;88.60;;;;;;;;;;6196179;23;20088;-74
2022/02/01 05:00:51;;;;;;;188.60;78.70;;;;;;;;;;6197005;23;19996;-74
2022/02/01 05:03:18;;;;;;;191.65;77.95;;;;;;;;;;6196917;23;20054;-74
2022/02/01 05:05:44;;;;;;;181.82;76.88;;;;;;;;;;6249553;23;19992;-74
2022/02/01 05:08:12;;;;;;;180.73;77.57;;;;;;;;;;6250680;23;19992;-74
2022/02/01 05:10:38;;;;;;;189.27;80.15;;;;;;;;;;6198949;23;20442;-74
2022/02/01 05:15:58;;;;;;;211.35;91.60;;;;;;;;;;6222798;23;20038;-74
2022/02/01 05:18:26;;;;;;;197.98;82.15;;;;;;;;;;6248101;23;20416;-75
2022/02/01 05:21:18;;;;;;;198.27;85.90;;;;;;;;;;6198373;23;19996;-75
2022/02/01 05:23:44;;;;;;;181.52;75.80;;;;;;;;;;6220989;23;20004;-75
2022/02/01 05:26:13;;;;;;;171.82;70.88;;;;;;;;;;6247493;23;20055;-76
2022/02/01 05:28:41;;;;;;;187.23;75.63;;;;;;;;;;6219125;23;20012;-75
2022/02/01 05:31:08;;;;;;;185.05;82.97;;;;;;;;;;6197354;23;20410;-75
2022/02/01 05:33:35;;;;;;;191.20;88.07;;;;;;;;;;6196215;23;20448;-75
2022/02/01 05:36:03;;;;;;;192.50;87.47;;;;;;;;;;6196510;23;20087;-75
2022/02/01 05:38:37;;;;;;;204.57;86.30;;;;;;;;;;6182793;23;20103;-75
2022/02/01 05:41:03;;;;;;;181.77;83.35;;;;;;;;;;6205897;23;20000;-75
2022/02/01 05:43:51;;;;;;;188.13;84.78;;;;;;;;;;6199703;23;20008;-77
2022/02/01 05:46:21;;;;;;;179.35;74.60;;;;;;;;;;6217084;23;20071;-76
2022/02/01 05:48:51;;;;;;;176.38;77.57;;;;;;;;;;6183407;23;20019;-74
2022/02/01 05:51:38;;;;;;;;;;;;;;;;;;;;;
2022/02/01 05:54:21;;;;;;;215.35;98.05;;;;;;;;;;6215272;23;20039;-78
2022/02/01 05:57:16;;;;;;;205.68;97.60;;;;;;;;;;6250774;23;20008;-75
2022/02/01 06:00:12;;;;;;;214.10;99.05;;;;;;;;;;6212107;23;20000;-75
2022/02/01 06:02:41;;;;;;;227.73;101.97;;;;;;;;;;6194816;23;20014;-74
2022/02/01 06:05:30;;;;;;;195.00;93.28;;;;;;;;;;6220772;23;20009;-76
2022/02/01 06:08:07;;;;;;;221.20;93.70;;;;;;;;;;6165953;23;19997;-74
2022/02/01 06:10:36;;;;;;;221.10;97.28;;;;;;;;;;6220030;23;20004;-75
2022/02/01 06:16:47;;;;;;;185.98;74.00;;;;;;;;;;6225096;23;20016;-76
2022/02/01 06:22:23;;;;;;;189.30;76.38;;;;;;;;;;6203238;23;20508;-76
2022/02/01 06:24:52;;;;;;;193.77;77.65;;;;;;;;;;6212368;23;20330;-75
2022/02/01 06:27:25;;;;;;;168.15;77.18;;;;;;;;;;6198218;23;20405;-77
2022/02/01 06:32:50;;;;;;;194.18;97.20;;;;;;;;;;6240387;22;19916;-81
2022/02/01 06:35:17;;;;;;;182.38;85.18;;;;;;;;;;6242614;23;20004;-80
2022/02/01 06:37:43;;;;;;;172.93;80.10;;;;;;;;;;6213999;23;20291;-80
2022/02/01 06:40:10;;;;;;;170.82;79.05;;;;;;;;;;6242123;23;19996;-80
2022/02/01 06:42:37;;;;;;;168.23;72.25;;;;;;;;;;6202990;23;20101;-79
2022/02/01 06:45:03;;;;;;;153.32;69.57;;;;;;;;;;6263764;23;20031;-81
2022/02/01 06:47:31;;;;;;;169.75;75.70;;;;;;;;;;6189432;23;20033;-75
2022/02/01 06:52:41;;;;;;;166.13;71.22;;;;;;;;;;6214841;23;20020;-74
2022/02/01 06:55:31;;;;;;;172.98;69.78;;;;;;;;;;6192084;23;20064;-80
2022/02/01 07:00:36;;;;;;;161.35;75.88;;;;;;;;;;5934670;22;6098344;-76
2022/02/01 07:05:54;;;;;;;158.88;66.35;;;;;;;;;;6217305;23;20019;-75
2022/02/01 07:08:24;;;;;;;173.32;70.05;;;;;;;;;;6188821;23;20016;-75
2022/02/01 07:13:27;;;;;;;161.98;65.80;;;;;;;;;;6222570;23;20020;-75
2022/02/01 07:18:39;;;;;;;154.63;68.57;;;;;;;;;;6222786;23;20020;-76
2022/02/01 07:21:31;;;;;;;173.90;71.88;;;;;;;;;;6167920;23;20043;-75
2022/02/01 07:24:16;;;;;;;164.27;64.90;;;;;;;;;;6207855;23;20016;-75
2022/02/01 07:27:09;;;;;;;179.65;68.93;;;;;;;;;;6200261;23;20014;-74
2022/02/01 07:29:39;;;;;;;162.25;70.00;;;;;;;;;;6198996;23;20057;-76
2022/02/01 07:32:09;;;;;;;160.70;69.60;;;;;;;;;;6166042;23;20000;-76
2022/02/01 07:38:27;;;;;;;173.55;77.70;;;;;;;;;;6196037;23;20342;-76
2022/02/01 07:44:07;;;;;;;176.52;83.13;;;;;;;;;;6188260;23;20395;-76
2022/02/01 07:47:21;;;;;;;172.77;73.50;;;;;;;;;;6134693;23;20009;-74
2022/02/01 07:49:57;;;;;;;187.32;86.15;;;;;;;;;;6147256;23;20016;-79
2022/02/01 07:52:23;;;;;;;170.43;77.20;;;;;;;;;;6249830;23;19996;-79
2022/02/01 08:00:15;;;;;;;181.10;77.53;;;;;;;;;;6232968;22;20040;-76
2022/02/01 08:03:19;;;;;;;167.27;80.28;;;;;;;;;;6217027;23;20023;-79
2022/02/01 08:05:48;;;;;;;179.52;82.25;;;;;;;;;;6216205;23;20082;-76
2022/02/01 08:08:20;;;;;;;179.57;77.97;;;;;;;;;;6203078;23;20012;-75
2022/02/01 08:10:52;;;;;;;187.00;85.90;;;;;;;;;;6193212;23;20003;-76
2022/02/01 08:21:54;;;;;;;166.50;74.43;;;;;;;;;;6203068;23;20047;-79
2022/02/01 08:24:20;;;;;;;176.93;75.82;;;;;;;;;;6248886;23;20019;-79
2022/02/01 08:26:47;;;;;;;180.63;78.38;;;;;;;;;;6250361;23;19988;-78
2022/02/01 08:29:15;;;;;;;185.98;83.18;;;;;;;;;;6198089;23;20028;-79
2022/02/01 08:31:41;;;;;;;168.77;66.07;;;;;;;;;;6223009;23;19996;-79
2022/02/01 08:34:07;;;;;;;166.05;72.38;;;;;;;;;;6252395;23;19996;-79
2022/02/01 08:36:33;;;;;;;180.10;77.47;;;;;;;;;;6251895;23;20034;-80
2022/02/01 08:39:00;;;;;;;190.05;87.10;;;;;;;;;;6248741;23;20297;-80
2022/02/01 08:44:09;;;;;;;187.55;81.75;;;;;;;;;;6240912;23;20346;-75
2022/02/01 08:46:36;;;;;;;173.52;80.55;;;;;;;;;;6171582;23;20020;-79
2022/02/01 08:49:02;;;;;;;186.43;81.68;;;;;;;;;;6248414;23;20008;-79
2022/02/01 08:51:38;;;;;;;177.13;78.95;;;;;;;;;;6250151;23;19999;-79
2022/02/01 08:54:11;;;;;;;176.10;81.72;;;;;;;;;;6223539;23;20027;-80
2022/02/01 08:59:21;;;;;;;174.20;82.15;;;;;;;;;;6248795;23;20003;-79
2022/02/01 09:01:47;;;;;;;177.57;80.90;;;;;;;;;;6223105;23;20020;-79
2022/02/01 09:04:13;;;;;;;173.80;78.38;;;;;;;;;;6249410;23;20010;-79
2022/02/01 09:06:40;;;;;;;182.07;76.65;;;;;;;;;;6250009;23;20000;-81
2022/02/01 09:09:06;;;;;;;172.30;74.38;;;;;;;;;;6248643;23;19992;-80
2022/02/01 09:11:32;;;;;;;182.90;77.55;;;;;;;;;;6202119;23;19984;-80
2022/02/01 09:13:59;;;;;;;170.40;76.50;;;;;;;;;;6261180;23;20007;-80
2022/02/01 09:16:25;;;;;;;197.05;76.65;;;;;;;;;;6190174;23;20012;-80
2022/02/01 09:18:52;;;;;;;189.63;77.93;;;;;;;;;;6250362;23;20464;-80
2022/02/01 09:21:18;;;;;;;165.25;77.10;;;;;;;;;;6222881;23;20024;-80
2022/02/01 09:23:44;;;;;;;177.00;77.10;;;;;;;;;;6248902;23;20011;-80
2022/02/01 09:26:11;;;;;;;177.43;75.72;;;;;;;;;;6198243;23;19997;-80
2022/02/01 09:28:37;;;;;;;186.50;79.90;;;;;;;;;;6199673;23;20031;-79
2022/02/01 09:31:05;;;;;;;191.27;80.65;;;;;;;;;;6250098;23;20046;-79
2022/02/01 09:33:31;;;;;;;185.07;82.03;;;;;;;;;;6198313;23;20000;-80
2022/02/01 09:35:58;;;;;;;183.65;76.57;;;;;;;;;;6249838;23;19992;-79
2022/02/01 09:38:29;;;;;;;182.38;73.75;;;;;;;;;;6223497;23;19992;-80
2022/02/01 09:40:56;;;;;;;180.07;81.18;;;;;;;;;;6249419;23;19992;-79
2022/02/01 09:43:22;;;;;;;196.00;84.40;;;;;;;;;;6197872;23;20004;-79
2022/02/01 09:45:51;;;;;;;185.05;83.97;;;;;;;;;;6254036;23;19992;-79
2022/02/01 09:48:17;;;;;;;171.60;77.13;;;;;;;;;;6199748;23;19992;-79
2022/02/01 09:50:44;;;;;;;180.65;78.75;;;;;;;;;;6225531;23;20050;-79
2022/02/01 09:53:10;;;;;;;194.65;86.68;;;;;;;;;;6200473;23;20080;-80
2022/02/01 09:55:36;;;;;;;190.75;83.43;;;;;;;;;;6252943;23;20035;-80
2022/02/01 09:58:03;;;;;;;186.07;86.03;;;;;;;;;;6225886;23;19996;-81
2022/02/01 10:00:33;;;;;;;198.23;82.35;;;;;;;;;;6225102;23;19992;-80
2022/02/01 10:03:00;;;;;;;184.20;80.60;;;;;;;;;;6223732;23;20011;-80
2022/02/01 10:05:26;;;;;;;175.98;78.60;;;;;;;;;;6252806;23;20337;-80
2022/02/01 10:07:53;;;;;;;182.27;82.57;;;;;;;;;;6225248;23;20379;-80
2022/02/01 10:10:20;;;;;;;192.57;78.57;;;;;;;;;;6224991;23;19992;-80
2022/02/01 10:13:17;;;;;;;207.68;84.07;;;;;;;;;;6251612;23;19988;-80
2022/02/01 10:15:57;;;;;;;197.63;85.55;;;;;;;;;;6213827;23;20000;-81
2022/02/01 10:18:27;;;;;;;184.27;73.43;;;;;;;;;;6226450;23;20002;-80
2022/02/01 10:20:53;;;;;;;170.85;76.00;;;;;;;;;;6224386;23;20015;-80
2022/02/01 10:23:26;;;;;;;165.63;75.47;;;;;;;;;;6225994;23;20008;-80
2022/02/01 10:25:58;;;;;;;179.10;75.00;;;;;;;;;;6225998;23;20295;-80
2022/02/01 10:28:28;;;;;;;194.65;81.78;;;;;;;;;;6225266;23;20045;-81
2022/02/01 10:30:56;;;;;;;176.90;78.83;;;;;;;;;;6252792;23;20387;-80
2022/02/01 10:36:12;;;;;;;156.57;68.05;;;;;;;;;;6252737;23;20054;-80
2022/02/01 10:38:38;;;;;;;152.30;66.82;;;;;;;;;;6251868;23;19992;-80
2022/02/01 10:41:07;;;;;;;169.90;79.22;;;;;;;;;;6247382;23;19996;-79
2022/02/01 10:43:34;;;;;;;153.90;64.82;;;;;;;;;;6257828;23;20110;-81
2022/02/01 10:46:09;;;;;;;158.05;72.25;;;;;;;;;;6225981;23;19996;-81
2022/02/01 10:48:36;;;;;;;159.52;70.18;;;;;;;;;;6252308;23;20014;-80
2022/02/01 10:51:16;;;;;;;169.32;76.82;;;;;;;;;;6226623;23;20000;-81
2022/02/01 10:53:42;;;;;;;157.40;71.88;;;;;;;;;;6221672;23;20016;-75
2022/02/01 10:56:13;;;;;;;159.55;67.38;;;;;;;;;;6175352;23;20035;-75
2022/02/01 10:58:44;;;;;;;160.68;67.43;;;;;;;;;;6177100;23;20019;-81
2022/02/01 11:01:11;;;;;;;164.10;72.22;;;;;;;;;;6245310;22;20001;-80
2022/02/01 11:03:41;;;;;;;158.55;74.28;;;;;;;;;;6255286;23;20019;-80
2022/02/01 11:06:08;;;;;;;174.73;78.93;;;;;;;;;;6255588;23;19999;-80
2022/02/01 11:08:35;;;;;;;164.65;71.95;;;;;;;;;;6228434;23;20406;-80
2022/02/01 11:11:01;;;;;;;137.02;62.53;;;;;;;;;;6255151;23;20416;-79
2022/02/01 11:13:41;;;;;;;156.00;71.90;;;;;;;;;;6226256;23;20025;-80
2022/02/01 11:16:08;;;;;;;144.30;67.63;;;;;;;;;;6253755;23;19988;-80
2022/02/01 11:18:35;;;;;;;163.70;70.82;;;;;;;;;;6227630;23;20042;-79
2022/02/01 11:21:08;;;;;;;163.85;79.80;;;;;;;;;;6254149;23;20448;-80
2022/02/01 11:23:44;;;;;;;144.15;66.05;;;;;;;;;;6203045;23;20010;-80
2022/02/01 11:26:19;;;;;;;163.30;79.13;;;;;;;;;;6230371;23;20382;-80
2022/02/01 11:29:00;;;;;;;133.02;66.85;;;;;;;;;;6205901;23;20421;-80
2022/02/01 11:31:30;;;;;;;145.80;63.17;;;;;;;;;;6231030;23;20000;-80
2022/02/01 11:33:56;;;;;;;146.88;66.47;;;;;;;;;;6252029;23;20031;-80
2022/02/01 11:36:23;;;;;;;167.32;73.15;;;;;;;;;;6228270;23;19995;-80
2022/02/01 11:38:54;;;;;;;140.40;64.88;;;;;;;;;;6227677;23;19992;-80
2022/02/01 11:41:30;;;;;;;134.68;59.65;;;;;;;;;;6228043;23;20038;-80
2022/02/01 11:44:06;;;;;;;124.68;57.90;;;;;;;;;;6227122;23;20444;-79
2022/02/01 11:46:32;;;;;;;136.68;60.92;;;;;;;;;;6228636;23;19992;-80
2022/02/01 11:48:59;;;;;;;137.60;57.28;;;;;;;;;;6253789;23;19996;-80
2022/02/01 11:51:27;;;;;;;139.70;63.60;;;;;;;;;;6253558;23;20052;-80
2022/02/01 11:53:58;;;;;;;148.25;62.78;;;;;;;;;;6253277;23;19996;-80
2022/02/01 11:56:31;;;;;;;131.95;60.95;;;;;;;;;;6223808;23;19989;-80
2022/02/01 11:59:00;;;;;;;147.32;61.53;;;;;;;;;;6251238;23;20294;-80
2022/02/01 12:01:31;;;;;;;163.13;66.68;;;;;;;;;;6226443;23;20007;-79
2022/02/01 12:04:00;;;;;;;133.65;63.30;;;;;;;;;;6203923;23;20030;-80
2022/02/01 12:06:36;;;;;;;164.75;67.65;;;;;;;;;;6227297;23;20000;-80
2022/02/01 12:09:08;;;;;;;137.07;64.38;;;;;;;;;;6252965;23;20456;-80
2022/02/01 12:11:34;;;;;;;142.00;63.58;;;;;;;;;;6226712;23;19993;-80
2022/02/01 12:14:03;;;;;;;156.02;67.40;;;;;;;;;;6251982;23;19992;-80
2022/02/01 12:16:29;;;;;;;152.95;68.20;;;;;;;;;;6227360;23;19995;-81
2022/02/01 12:19:01;;;;;;;164.48;78.38;;;;;;;;;;6252327;23;20369;-80
2022/02/01 12:22:03;;;;;;;139.23;66.15;;;;;;;;;;6228485;23;20011;-81
2022/02/01 12:24:29;;;;;;;130.73;60.13;;;;;;;;;;6191583;23;20037;-81
2022/02/01 12:26:55;;;;;;;135.23;62.75;;;;;;;;;;6241978;23;20004;-81
2022/02/01 12:29:21;;;;;;;147.45;66.88;;;;;;;;;;6252651;23;19992;-81
2022/02/01 12:31:48;;;;;;;144.27;66.15;;;;;;;;;;6254992;23;20019;-81
2022/02/01 12:34:16;;;;;;;142.57;65.88;;;;;;;;;;6226279;23;20008;-81
2022/02/01 12:36:50;;;;;;;164.13;68.22;;;;;;;;;;6254672;23;20316;-80
2022/02/01 12:39:22;;;;;;;137.30;65.47;;;;;;;;;;6224963;23;20079;-80
2022/02/01 12:42:03;;;;;;;152.27;69.53;;;;;;;;;;6255455;23;20000;-80
2022/02/01 12:46:59;;;;;;;168.10;73.32;;;;;;;;;;6227894;23;20003;-80
2022/02/01 12:49:39;;;;;;;177.45;78.13;;;;;;;;;;6225502;23;20067;-79
2022/02/01 12:52:19;;;;;;;163.48;74.13;;;;;;;;;;6252430;23;19996;-80
2022/02/01 12:54:45;;;;;;;149.20;76.28;;;;;;;;;;6255015;23;20509;-80
2022/02/01 12:57:13;;;;;;;172.02;82.97;;;;;;;;;;6253436;23;19992;-80
2022/02/01 12:59:46;;;;;;;208.05;103.80;;;;;;;;;;6225211;23;20149;-80
2022/02/01 13:02:19;;;;;;;198.60;99.75;;;;;;;;;;6252558;23;19996;-80
2022/02/01 13:04:50;;;;;;;185.68;87.25;;;;;;;;;;6225711;23;20004;-80
2022/02/01 13:07:29;;;;;;;215.07;100.65;;;;;;;;;;6251204;23;20019;-80
2022/02/01 13:13:01;;;;;;;246.10;111.78;;;;;;;;;;6221038;23;20394;-75
2022/02/01 13:18:17;;;;;;;174.95;84.85;;;;;;;;;;6250570;23;19988;-75
2022/02/01 13:20:44;;;;;;;183.53;86.67;;;;;;;;;;6222770;23;19997;-75
2022/02/01 13:23:11;;;;;;;184.32;82.43;;;;;;;;;;6224295;23;20091;-73
2022/02/01 13:25:39;;;;;;;195.95;94.45;;;;;;;;;;6250211;23;20123;-73
2022/02/01 13:28:07;;;;;;;198.45;92.53;;;;;;;;;;6249412;23;20020;-74
2022/02/01 13:30:35;;;;;;;233.20;106.28;;;;;;;;;;6250907;23;20341;-74
2022/02/01 13:33:08;;;;;;;226.73;101.00;;;;;;;;;;6248229;23;20063;-74
2022/02/01 13:35:43;;;;;;;221.43;101.50;;;;;;;;;;6248836;23;20004;-74
2022/02/01 13:38:10;;;;;;;224.70;111.28;;;;;;;;;;6225107;23;19996;-74
2022/02/01 13:40:37;;;;;;;231.77;112.18;;;;;;;;;;6253144;23;20295;-74
2022/02/01 13:43:32;;;;;;;246.82;115.78;;;;;;;;;;6227749;23;20008;-74
2022/02/01 13:46:01;;;;;;;227.90;110.75;;;;;;;;;;6240974;23;20003;-73
2022/02/01 13:48:28;;;;;;;243.38;116.13;;;;;;;;;;6252829;23;19999;-73
2022/02/01 13:50:55;;;;;;;242.10;116.22;;;;;;;;;;6226615;23;20058;-74
2022/02/01 13:53:21;;;;;;;254.70;119.18;;;;;;;;;;6226304;23;19997;-74
2022/02/01 13:55:58;;;;;;;219.85;113.32;;;;;;;;;;6255751;23;20043;-74
2022/02/01 13:58:24;;;;;;;234.38;110.22;;;;;;;;;;6253726;23;20063;-74
2022/02/01 14:00:54;;;;;;;212.77;101.35;;;;;;;;;;6228098;23;20000;-74
2022/02/01 14:03:34;;;;;;;176.70;82.33;;;;;;;;;;6201145;23;20004;-74
2022/02/01 14:06:11;;;;;;;159.70;70.45;;;;;;;;;;6225502;23;20185;-73
2022/02/01 14:11:36;;;;;;;167.57;76.85;;;;;;;;;;6248555;23;19995;-74
2022/02/01 14:34:56;;;;;;;168.50;84.93;;;;;;;;;;6197572;23;20391;-73
2022/02/01 14:37:37;;;;;;;173.20;77.07;;;;;;;;;;6196192;23;20042;-73
2022/02/01 14:45:15;;;;;;;133.68;62.55;;;;;;;;;;6248593;23;20003;-74
2022/02/01 14:47:41;;;;;;;129.02;58.75;;;;;;;;;;6196599;23;19988;-74
2022/02/01 14:50:08;;;;;;;127.85;62.80;;;;;;;;;;6195490;23;20000;-74
2022/02/01 14:52:34;;;;;;;149.38;69.55;;;;;;;;;;6221542;23;20349;-74
2022/02/01 14:55:08;;;;;;;156.73;75.28;;;;;;;;;;6221138;23;19992;-73
2022/02/01 15:06:22;;;;;;;200.65;94.28;;;;;;;;;;6247988;23;20355;-74
2022/02/01 15:13:48;;;;;;;187.85;85.72;;;;;;;;;;6221476;23;20023;-73
2022/02/01 15:16:14;;;;;;;163.45;82.07;;;;;;;;;;6248546;23;20425;-74
2022/02/01 15:18:40;;;;;;;185.57;84.53;;;;;;;;;;6220617;23;19992;-74
2022/02/01 15:21:06;;;;;;;180.30;86.90;;;;;;;;;;6221103;23;20353;-74
2022/02/01 15:23:33;;;;;;;180.30;88.88;;;;;;;;;;6221270;23;20004;-74
2022/02/01 15:25:59;;;;;;;187.05;90.15;;;;;;;;;;6195814;23;20016;-73
2022/02/01 15:28:25;;;;;;;189.55;89.43;;;;;;;;;;6247327;23;19996;-74
2022/02/01 15:30:51;;;;;;;192.80;89.85;;;;;;;;;;6221399;23;20000;-73
2022/02/01 15:33:17;;;;;;;174.32;83.32;;;;;;;;;;6247870;23;19988;-74
2022/02/01 15:35:44;;;;;;;176.10;87.25;;;;;;;;;;6196165;23;20318;-73
2022/02/01 15:38:13;;;;;;;177.40;89.65;;;;;;;;;;6247406;23;19992;-74
2022/02/01 15:48:00;;;;;;;194.35;91.25;;;;;;;;;;6246996;23;19992;-74
2022/02/01 15:57:06;;;;;;;239.75;108.80;;;;;;;;;;6250579;23;20054;-74
2022/02/01 15:59:35;;;;;;;269.15;123.15;;;;;;;;;;6249543;23;20046;-74
2022/02/01 16:02:08;;;;;;;257.92;116.82;;;;;;;;;;6197931;23;20027;-73
2022/02/01 16:04:35;;;;;;;264.88;112.65;;;;;;;;;;6222618;23;20306;-74
2022/02/01 16:07:06;;;;;;;235.23;106.40;;;;;;;;;;6222464;23;19992;-74
2022/02/01 16:09:45;;;;;;;238.38;112.00;;;;;;;;;;6249601;23;20450;-74
2022/02/01 16:12:14;;;;;;;221.25;99.30;;;;;;;;;;6225107;23;20090;-73
2022/02/01 16:14:40;;;;;;;243.95;103.72;;;;;;;;;;6225962;23;19988;-73
2022/02/01 16:17:06;;;;;;;225.32;98.95;;;;;;;;;;6249067;23;20003;-74
2022/02/01 16:19:32;;;;;;;244.45;111.55;;;;;;;;;;6222717;23;19999;-74
2022/02/01 16:21:58;;;;;;;273.75;118.70;;;;;;;;;;6222486;23;20386;-74
2022/02/01 16:24:24;;;;;;;252.60;121.05;;;;;;;;;;6221962;23;20004;-74
2022/02/01 16:26:50;;;;;;;234.15;106.10;;;;;;;;;;6224264;23;20440;-74
2022/02/01 16:29:16;;;;;;;215.40;103.70;;;;;;;;;;6249070;23;19996;-73
2022/02/01 16:31:42;;;;;;;234.60;107.75;;;;;;;;;;6251498;23;20016;-73
2022/02/01 16:34:08;;;;;;;228.48;107.80;;;;;;;;;;6249203;23;20378;-73
2022/02/01 16:36:36;;;;;;;228.85;99.88;;;;;;;;;;6221897;23;20007;-74
2022/02/01 16:39:06;;;;;;;226.07;101.93;;;;;;;;;;6199760;23;20083;-74
2022/02/01 16:41:33;;;;;;;225.27;102.00;;;;;;;;;;6250239;23;20069;-73
2022/02/01 16:44:02;;;;;;;213.98;96.53;;;;;;;;;;6222612;23;20000;-73
2022/02/01 16:46:32;;;;;;;223.48;98.55;;;;;;;;;;6247446;23;19992;-73
2022/02/01 16:48:58;;;;;;;205.88;95.53;;;;;;;;;;6221702;23;20042;-73
2022/02/01 16:51:25;;;;;;;206.20;102.57;;;;;;;;;;6197616;23;20079;-74
2022/02/01 16:53:55;;;;;;;196.43;90.30;;;;;;;;;;6224278;23;20302;-73
2022/02/01 16:58:55;;;;;;;195.25;84.70;;;;;;;;;;6222561;23;19996;-74
2022/02/01 17:01:21;;;;;;;182.00;81.15;;;;;;;;;;6222227;23;19992;-73
2022/02/01 17:03:47;;;;;;;172.90;78.50;;;;;;;;;;6248460;23;20313;-74
2022/02/01 17:06:15;;;;;;;190.40;84.80;;;;;;;;;;6258393;23;19993;-73
2022/02/01 17:08:43;;;;;;;192.55;90.38;;;;;;;;;;6221767;23;20402;-74
2022/02/01 17:11:21;;;;;;;173.82;83.63;;;;;;;;;;6199186;23;20000;-73
2022/02/01 17:21:32;;;;;;;223.63;94.28;;;;;;;;;;6248261;23;20003;-74
2022/02/01 17:24:02;;;;;;;216.30;93.70;;;;;;;;;;6250271;23;20005;-73
2022/02/01 17:26:28;;;;;;;223.73;96.03;;;;;;;;;;6248652;23;20015;-74
2022/02/01 17:28:55;;;;;;;212.18;94.68;;;;;;;;;;6248132;23;20002;-74
2022/02/01 17:31:22;;;;;;;217.40;89.68;;;;;;;;;;6248613;23;19992;-74
2022/02/01 17:33:48;;;;;;;224.90;101.18;;;;;;;;;;6248344;23;19992;-74
2022/02/01 17:36:14;;;;;;;224.70;96.85;;;;;;;;;;6223443;23;20006;-73
2022/02/01 17:38:42;;;;;;;224.15;101.38;;;;;;;;;;6221758;23;20019;-73
2022/02/01 17:41:08;;;;;;;226.45;105.60;;;;;;;;;;6248653;23;20298;-74
2022/02/01 17:43:36;;;;;;;239.18;115.18;;;;;;;;;;6248128;23;20032;-74
2022/02/01 17:46:03;;;;;;;244.35;114.63;;;;;;;;;;6221655;23;20000;-74
2022/02/01 17:48:32;;;;;;;205.07;100.88;;;;;;;;;;6248358;23;20048;-74
2022/02/01 17:51:08;;;;;;;229.23;103.30;;;;;;;;;;6249109;23;19992;-74
2022/02/01 17:53:40;;;;;;;212.15;96.55;;;;;;;;;;6248020;23;20363;-74
2022/02/01 17:56:09;;;;;;;192.40;93.50;;;;;;;;;;6249921;23;20107;-73
2022/02/01 17:58:35;;;;;;;216.50;98.28;;;;;;;;;;6248544;23;19991;-73
2022/02/01 18:01:02;;;;;;;197.57;92.72;;;;;;;;;;6196989;23;20027;-74